sensor_id;sensor_type;location;lat;lon;timestamp;pressure;altitude;pressure_sealevel;temperature;humidity
80424;BME280;69765;47.668;19.326;2023-11-21T00:01:38;98640.81;;;6.88;88.89
80424;BME280;69765;47.668;19.326;2023-11-21T00:04:41;98640.25;;;6.92;88.45
80424;BME280;69765;47.668;19.326;2023-11-21T00:07:44;98633.16;;;6.88;88.65
80424;BME280;69765;47.668;19.326;2023-11-21T00:10:46;98639.25;;;7.02;87.87
80424;BME280;69765;47.668;19.326;2023-11-21T00:13:50;98638.59;;;6.93;88.36
80424;BME280;69765;47.668;19.326;2023-11-21T00:16:53;98634.56;;;7.08;87.12
80424;BME280;69765;47.668;19.326;2023-11-21T00:19:55;98635.69;;;7.00;87.73
80424;BME280;69765;47.668;19.326;2023-11-21T00:22:57;98638.41;;;7.14;86.97
80424;BME280;69765;47.668;19.326;2023-11-21T00:26:01;98648.66;;;7.03;87.25
80424;BME280;69765;47.668;19.326;2023-11-21T00:29:03;98648.53;;;7.01;86.95
80424;BME280;69765;47.668;19.326;2023-11-21T00:32:06;98659.81;;;7.05;86.56
80424;BME280;69765;47.668;19.326;2023-11-21T00:35:09;98657.63;;;6.98;87.08
80424;BME280;69765;47.668;19.326;2023-11-21T00:38:12;98658.94;;;6.93;87.41
80424;BME280;69765;47.668;19.326;2023-11-21T00:41:14;98657.28;;;6.81;87.99
80424;BME280;69765;47.668;19.326;2023-11-21T00:44:16;98654.41;;;6.65;88.85
80424;BME280;69765;47.668;19.326;2023-11-21T00:47:20;98655.63;;;6.70;88.99
80424;BME280;69765;47.668;19.326;2023-11-21T00:50:22;98662.50;;;6.59;89.18
80424;BME280;69765;47.668;19.326;2023-11-21T00:53:25;98651.84;;;6.53;89.79
80424;BME280;69765;47.668;19.326;2023-11-21T00:56:28;98652.97;;;6.45;90.08
80424;BME280;69765;47.668;19.326;2023-11-21T00:59:30;98654.16;;;6.38;90.54
80424;BME280;69765;47.668;19.326;2023-11-21T01:02:32;98651.06;;;6.31;90.94
80424;BME280;69765;47.668;19.326;2023-11-21T01:05:35;98642.22;;;6.26;90.69
80424;BME280;69765;47.668;19.326;2023-11-21T01:08:37;98638.66;;;6.24;91.37
80424;BME280;69765;47.668;19.326;2023-11-21T01:11:40;98635.13;;;6.22;91.38
80424;BME280;69765;47.668;19.326;2023-11-21T01:14:42;98638.75;;;6.13;91.60
80424;BME280;69765;47.668;19.326;2023-11-21T01:17:45;98629.34;;;6.12;92.16
80424;BME280;69765;47.668;19.326;2023-11-21T01:20:47;98633.00;;;6.16;92.22
80424;BME280;69765;47.668;19.326;2023-11-21T01:23:50;98640.06;;;6.20;91.71
80424;BME280;69765;47.668;19.326;2023-11-21T01:26:52;98635.47;;;6.26;92.04
80424;BME280;69765;47.668;19.326;2023-11-21T01:29:54;98635.47;;;6.38;91.49
80424;BME280;69765;47.668;19.326;2023-11-21T01:32:57;98636.91;;;6.34;91.33
80424;BME280;69765;47.668;19.326;2023-11-21T01:35:59;98639.22;;;6.31;91.35
80424;BME280;69765;47.668;19.326;2023-11-21T01:39:02;98632.28;;;6.40;91.12
80424;BME280;69765;47.668;19.326;2023-11-21T01:42:10;98633.16;;;6.53;90.87
80424;BME280;69765;47.668;19.326;2023-11-21T01:45:15;98632.63;;;6.45;90.94
80424;BME280;69765;47.668;19.326;2023-11-21T01:48:18;98638.91;;;6.62;90.56
80424;BME280;69765;47.668;19.326;2023-11-21T01:51:20;98637.47;;;6.54;90.54
80424;BME280;69765;47.668;19.326;2023-11-21T01:54:23;98632.63;;;6.69;90.38
80424;BME280;69765;47.668;19.326;2023-11-21T01:57:25;98619.13;;;6.70;90.05
80424;BME280;69765;47.668;19.326;2023-11-21T02:00:27;98625.19;;;6.72;89.85
80424;BME280;69765;47.668;19.326;2023-11-21T02:03:31;98617.69;;;6.73;89.73
80424;BME280;69765;47.668;19.326;2023-11-21T02:06:34;98626.31;;;6.87;88.99
80424;BME280;69765;47.668;19.326;2023-11-21T02:09:36;98621.97;;;6.98;88.53
80424;BME280;69765;47.668;19.326;2023-11-21T02:12:44;98612.75;;;7.00;88.13
80424;BME280;69765;47.668;19.326;2023-11-21T02:15:47;98609.78;;;6.82;88.95
80424;BME280;69765;47.668;19.326;2023-11-21T02:18:52;98608.69;;;6.90;88.67
80424;BME280;69765;47.668;19.326;2023-11-21T02:21:56;98603.41;;;6.87;88.58
80424;BME280;69765;47.668;19.326;2023-11-21T02:25:05;98592.22;;;6.97;88.30
80424;BME280;69765;47.668;19.326;2023-11-21T02:28:10;98596.75;;;6.77;89.15
80424;BME280;69765;47.668;19.326;2023-11-21T02:31:15;98591.88;;;6.80;89.34
80424;BME280;69765;47.668;19.326;2023-11-21T02:34:18;98596.66;;;6.76;89.40
80424;BME280;69765;47.668;19.326;2023-11-21T02:37:20;98593.66;;;6.70;89.70
80424;BME280;69765;47.668;19.326;2023-11-21T02:40:23;98589.03;;;6.64;89.65
80424;BME280;69765;47.668;19.326;2023-11-21T02:43:27;98590.00;;;6.66;90.24
80424;BME280;69765;47.668;19.326;2023-11-21T02:46:29;98584.69;;;6.63;90.10
80424;BME280;69765;47.668;19.326;2023-11-21T02:49:35;98582.84;;;6.60;90.18
80424;BME280;69765;47.668;19.326;2023-11-21T02:52:38;98586.03;;;6.58;90.17
80424;BME280;69765;47.668;19.326;2023-11-21T02:55:42;98583.59;;;6.71;89.72
80424;BME280;69765;47.668;19.326;2023-11-21T02:58:45;98579.94;;;6.68;89.88
80424;BME280;69765;47.668;19.326;2023-11-21T03:01:48;98597.66;;;6.78;89.58
80424;BME280;69765;47.668;19.326;2023-11-21T03:04:51;98592.34;;;6.75;89.66
80424;BME280;69765;47.668;19.326;2023-11-21T03:07:54;98584.81;;;6.76;89.65
80424;BME280;69765;47.668;19.326;2023-11-21T03:10:56;98584.38;;;6.70;89.76
80424;BME280;69765;47.668;19.326;2023-11-21T03:13:59;98571.66;;;6.70;89.70
80424;BME280;69765;47.668;19.326;2023-11-21T03:17:01;98576.19;;;6.74;89.73
80424;BME280;69765;47.668;19.326;2023-11-21T03:20:04;98573.31;;;6.70;89.85
80424;BME280;69765;47.668;19.326;2023-11-21T03:23:07;98568.78;;;6.65;89.83
80424;BME280;69765;47.668;19.326;2023-11-21T03:26:13;98560.25;;;6.65;90.01
80424;BME280;69765;47.668;19.326;2023-11-21T03:29:16;98558.28;;;6.61;89.88
80424;BME280;69765;47.668;19.326;2023-11-21T03:32:18;98554.75;;;6.59;90.22
80424;BME280;69765;47.668;19.326;2023-11-21T03:35:21;98548.88;;;6.60;90.08
80424;BME280;69765;47.668;19.326;2023-11-21T03:38:24;98550.53;;;6.48;90.45
80424;BME280;69765;47.668;19.326;2023-11-21T03:41:26;98542.69;;;6.45;90.59
80424;BME280;69765;47.668;19.326;2023-11-21T03:44:28;98544.69;;;6.37;90.95
80424;BME280;69765;47.668;19.326;2023-11-21T03:47:31;98537.50;;;6.31;90.61
80424;BME280;69765;47.668;19.326;2023-11-21T03:50:33;98540.72;;;6.17;90.85
80424;BME280;69765;47.668;19.326;2023-11-21T03:53:35;98543.13;;;6.15;90.69
80424;BME280;69765;47.668;19.326;2023-11-21T03:56:38;98533.41;;;5.98;90.75
80424;BME280;69765;47.668;19.326;2023-11-21T03:59:41;98529.75;;;5.95;91.54
80424;BME280;69765;47.668;19.326;2023-11-21T04:02:45;98526.50;;;5.85;91.35
80424;BME280;69765;47.668;19.326;2023-11-21T04:05:47;98522.63;;;5.79;91.30
80424;BME280;69765;47.668;19.326;2023-11-21T04:08:50;98522.69;;;5.69;91.95
80424;BME280;69765;47.668;19.326;2023-11-21T04:11:52;98520.16;;;5.69;93.09
80424;BME280;69765;47.668;19.326;2023-11-21T04:14:55;98520.91;;;5.68;93.24
80424;BME280;69765;47.668;19.326;2023-11-21T04:17:57;98522.28;;;5.86;94.04
80424;BME280;69765;47.668;19.326;2023-11-21T04:20:59;98531.81;;;5.88;93.89
80424;BME280;69765;47.668;19.326;2023-11-21T04:24:02;98536.03;;;6.11;92.68
80424;BME280;69765;47.668;19.326;2023-11-21T04:27:04;98550.84;;;6.05;92.78
80424;BME280;69765;47.668;19.326;2023-11-21T04:30:07;98557.94;;;6.09;92.74
80424;BME280;69765;47.668;19.326;2023-11-21T04:33:09;98577.38;;;6.09;92.53
80424;BME280;69765;47.668;19.326;2023-11-21T04:36:12;98580.72;;;6.08;92.69
80424;BME280;69765;47.668;19.326;2023-11-21T04:39:14;98584.69;;;6.16;92.32
80424;BME280;69765;47.668;19.326;2023-11-21T04:42:16;98583.72;;;6.26;91.86
80424;BME280;69765;47.668;19.326;2023-11-21T04:45:19;98577.06;;;6.28;91.46
80424;BME280;69765;47.668;19.326;2023-11-21T04:48:21;98581.63;;;6.32;91.01
80424;BME280;69765;47.668;19.326;2023-11-21T04:51:23;98579.72;;;6.29;91.20
80424;BME280;69765;47.668;19.326;2023-11-21T04:54:26;98577.31;;;6.31;91.24
80424;BME280;69765;47.668;19.326;2023-11-21T04:57:30;98579.53;;;6.26;91.57
80424;BME280;69765;47.668;19.326;2023-11-21T05:00:32;98590.09;;;6.21;91.46
80424;BME280;69765;47.668;19.326;2023-11-21T05:03:35;98588.78;;;6.14;91.93
80424;BME280;69765;47.668;19.326;2023-11-21T05:06:37;98592.06;;;6.01;91.16
80424;BME280;69765;47.668;19.326;2023-11-21T05:09:42;98595.44;;;5.90;91.20
80424;BME280;69765;47.668;19.326;2023-11-21T05:12:47;98608.06;;;5.88;91.62
80424;BME280;69765;47.668;19.326;2023-11-21T05:15:52;98606.81;;;5.83;90.93
80424;BME280;69765;47.668;19.326;2023-11-21T05:18:54;98610.78;;;5.80;92.52
80424;BME280;69765;47.668;19.326;2023-11-21T05:22:02;98613.41;;;5.70;93.32
80424;BME280;69765;47.668;19.326;2023-11-21T05:25:05;98614.13;;;5.90;93.63
80424;BME280;69765;47.668;19.326;2023-11-21T05:28:09;98616.06;;;5.93;93.46
80424;BME280;69765;47.668;19.326;2023-11-21T05:31:11;98619.50;;;6.05;92.85
80424;BME280;69765;47.668;19.326;2023-11-21T05:34:18;98618.75;;;6.18;92.52
80424;BME280;69765;47.668;19.326;2023-11-21T05:37:20;98611.34;;;6.21;92.34
80424;BME280;69765;47.668;19.326;2023-11-21T05:40:23;98603.59;;;6.20;92.21
80424;BME280;69765;47.668;19.326;2023-11-21T05:43:25;98607.50;;;6.26;91.78
80424;BME280;69765;47.668;19.326;2023-11-21T05:46:29;98604.16;;;6.39;91.07
80424;BME280;69765;47.668;19.326;2023-11-21T05:49:32;98603.81;;;6.34;91.37
80424;BME280;69765;47.668;19.326;2023-11-21T05:52:34;98614.56;;;6.42;90.84
80424;BME280;69765;47.668;19.326;2023-11-21T05:55:37;98613.25;;;6.35;91.11
80424;BME280;69765;47.668;19.326;2023-11-21T05:58:40;98598.44;;;6.42;90.86
80424;BME280;69765;47.668;19.326;2023-11-21T06:01:42;98592.25;;;6.26;90.67
80424;BME280;69765;47.668;19.326;2023-11-21T06:04:45;98596.84;;;6.20;91.34
80424;BME280;69765;47.668;19.326;2023-11-21T06:07:47;98596.75;;;6.19;91.47
80424;BME280;69765;47.668;19.326;2023-11-21T06:10:50;98621.06;;;6.15;92.24
80424;BME280;69765;47.668;19.326;2023-11-21T06:13:52;98615.09;;;6.14;93.00
80424;BME280;69765;47.668;19.326;2023-11-21T06:16:58;98611.13;;;6.18;93.12
80424;BME280;69765;47.668;19.326;2023-11-21T06:20:00;98616.09;;;6.28;92.45
80424;BME280;69765;47.668;19.326;2023-11-21T06:23:03;98633.25;;;6.31;92.61
80424;BME280;69765;47.668;19.326;2023-11-21T06:26:06;98643.09;;;6.38;93.08
80424;BME280;69765;47.668;19.326;2023-11-21T06:29:08;98653.63;;;6.31;91.57
80424;BME280;69765;47.668;19.326;2023-11-21T06:32:10;98654.88;;;6.14;92.62
80424;BME280;69765;47.668;19.326;2023-11-21T06:35:13;98662.88;;;6.30;92.45
80424;BME280;69765;47.668;19.326;2023-11-21T06:38:15;98672.00;;;6.50;91.51
80424;BME280;69765;47.668;19.326;2023-11-21T06:41:18;98663.47;;;6.50;91.20
80424;BME280;69765;47.668;19.326;2023-11-21T06:44:20;98654.38;;;6.53;91.23
80424;BME280;69765;47.668;19.326;2023-11-21T06:47:26;98670.88;;;6.58;91.22
80424;BME280;69765;47.668;19.326;2023-11-21T06:50:28;98672.56;;;6.70;90.48
80424;BME280;69765;47.668;19.326;2023-11-21T06:53:31;98674.09;;;6.68;90.19
80424;BME280;69765;47.668;19.326;2023-11-21T06:56:33;98676.09;;;6.72;90.22
80424;BME280;69765;47.668;19.326;2023-11-21T06:59:35;98683.06;;;6.74;89.67
80424;BME280;69765;47.668;19.326;2023-11-21T07:02:38;98682.50;;;6.66;90.23
80424;BME280;69765;47.668;19.326;2023-11-21T07:05:41;98685.19;;;6.68;90.26
80424;BME280;69765;47.668;19.326;2023-11-21T07:08:43;98694.91;;;6.74;89.88
80424;BME280;69765;47.668;19.326;2023-11-21T07:11:46;98687.94;;;6.71;90.09
80424;BME280;69765;47.668;19.326;2023-11-21T07:14:50;98694.03;;;6.73;90.05
80424;BME280;69765;47.668;19.326;2023-11-21T07:17:53;98692.69;;;6.66;90.53
80424;BME280;69765;47.668;19.326;2023-11-21T07:20:56;98693.69;;;6.80;90.14
80424;BME280;69765;47.668;19.326;2023-11-21T07:23:59;98701.22;;;6.79;89.76
80424;BME280;69765;47.668;19.326;2023-11-21T07:27:03;98705.53;;;6.80;89.93
80424;BME280;69765;47.668;19.326;2023-11-21T07:30:06;98706.19;;;6.77;89.96
80424;BME280;69765;47.668;19.326;2023-11-21T07:33:11;98702.13;;;6.79;90.09
80424;BME280;69765;47.668;19.326;2023-11-21T07:36:14;98701.34;;;6.80;90.35
80424;BME280;69765;47.668;19.326;2023-11-21T07:39:16;98703.78;;;6.79;90.77
80424;BME280;69765;47.668;19.326;2023-11-21T07:42:19;98707.09;;;6.89;90.06
80424;BME280;69765;47.668;19.326;2023-11-21T07:45:22;98702.22;;;6.93;90.03
80424;BME280;69765;47.668;19.326;2023-11-21T07:48:25;98702.34;;;6.94;89.89
80424;BME280;69765;47.668;19.326;2023-11-21T07:51:27;98714.09;;;6.92;89.89
80424;BME280;69765;47.668;19.326;2023-11-21T07:54:30;98708.41;;;6.96;90.31
80424;BME280;69765;47.668;19.326;2023-11-21T07:57:33;98712.06;;;7.00;90.10
80424;BME280;69765;47.668;19.326;2023-11-21T08:00:35;98714.94;;;7.04;89.93
80424;BME280;69765;47.668;19.326;2023-11-21T08:03:37;98703.34;;;7.08;89.58
80424;BME280;69765;47.668;19.326;2023-11-21T08:06:40;98702.66;;;7.10;89.39
80424;BME280;69765;47.668;19.326;2023-11-21T08:09:44;98695.13;;;7.12;89.43
80424;BME280;69765;47.668;19.326;2023-11-21T08:12:46;98695.47;;;7.16;89.12
80424;BME280;69765;47.668;19.326;2023-11-21T08:15:54;98691.25;;;7.17;89.38
80424;BME280;69765;47.668;19.326;2023-11-21T08:18:57;98681.63;;;7.25;88.86
80424;BME280;69765;47.668;19.326;2023-11-21T08:21:59;98675.63;;;7.24;89.12
80424;BME280;69765;47.668;19.326;2023-11-21T08:25:03;98684.69;;;7.32;88.73
80424;BME280;69765;47.668;19.326;2023-11-21T08:28:08;98696.97;;;7.38;88.93
80424;BME280;69765;47.668;19.326;2023-11-21T08:31:10;98702.28;;;7.41;88.18
80424;BME280;69765;47.668;19.326;2023-11-21T08:34:15;98711.50;;;7.39;88.59
80424;BME280;69765;47.668;19.326;2023-11-21T08:37:18;98703.06;;;7.40;88.29
80424;BME280;69765;47.668;19.326;2023-11-21T08:40:20;98703.03;;;7.52;88.06
80424;BME280;69765;47.668;19.326;2023-11-21T08:43:23;98702.84;;;7.49;88.47
80424;BME280;69765;47.668;19.326;2023-11-21T08:46:26;98707.66;;;7.57;88.19
80424;BME280;69765;47.668;19.326;2023-11-21T08:49:29;98703.13;;;7.65;87.40
80424;BME280;69765;47.668;19.326;2023-11-21T08:52:32;98697.38;;;7.67;87.67
80424;BME280;69765;47.668;19.326;2023-11-21T08:55:34;98700.09;;;7.71;88.07
80424;BME280;69765;47.668;19.326;2023-11-21T08:58:39;98696.13;;;7.74;87.88
80424;BME280;69765;47.668;19.326;2023-11-21T09:01:42;98697.00;;;7.75;88.14
80424;BME280;69765;47.668;19.326;2023-11-21T09:04:44;98700.28;;;7.85;88.15
80424;BME280;69765;47.668;19.326;2023-11-21T09:07:49;98697.16;;;7.89;88.15
80424;BME280;69765;47.668;19.326;2023-11-21T09:10:51;98695.06;;;7.96;87.46
80424;BME280;69765;47.668;19.326;2023-11-21T09:13:54;98698.09;;;8.03;87.11
80424;BME280;69765;47.668;19.326;2023-11-21T09:16:57;98693.31;;;8.08;87.04
80424;BME280;69765;47.668;19.326;2023-11-21T09:20:00;98689.66;;;8.04;86.53
80424;BME280;69765;47.668;19.326;2023-11-21T09:23:02;98689.78;;;8.06;86.05
80424;BME280;69765;47.668;19.326;2023-11-21T09:26:05;98689.66;;;8.04;86.22
80424;BME280;69765;47.668;19.326;2023-11-21T09:29:07;98688.47;;;7.99;86.99
80424;BME280;69765;47.668;19.326;2023-11-21T09:32:10;98689.47;;;8.01;87.16
80424;BME280;69765;47.668;19.326;2023-11-21T09:35:13;98680.47;;;8.06;87.45
80424;BME280;69765;47.668;19.326;2023-11-21T09:38:16;98678.88;;;8.08;87.44
80424;BME280;69765;47.668;19.326;2023-11-21T09:41:25;98677.44;;;8.12;86.81
80424;BME280;69765;47.668;19.326;2023-11-21T09:44:35;98673.44;;;8.15;87.02
80424;BME280;69765;47.668;19.326;2023-11-21T09:47:39;98675.91;;;8.27;87.75
80424;BME280;69765;47.668;19.326;2023-11-21T09:50:42;98674.75;;;8.35;86.32
80424;BME280;69765;47.668;19.326;2023-11-21T09:53:46;98672.75;;;8.43;85.89
80424;BME280;69765;47.668;19.326;2023-11-21T09:56:49;98659.13;;;8.42;85.99
80424;BME280;69765;47.668;19.326;2023-11-21T09:59:53;98658.31;;;8.43;86.51
80424;BME280;69765;47.668;19.326;2023-11-21T10:03:00;98662.88;;;8.36;87.07
80424;BME280;69765;47.668;19.326;2023-11-21T10:06:04;98661.78;;;8.32;87.13
80424;BME280;69765;47.668;19.326;2023-11-21T10:09:10;98660.72;;;8.29;86.30
80424;BME280;69765;47.668;19.326;2023-11-21T10:12:15;98655.97;;;8.22;87.17
80424;BME280;69765;47.668;19.326;2023-11-21T10:15:18;98658.94;;;8.28;87.10
80424;BME280;69765;47.668;19.326;2023-11-21T10:18:20;98653.44;;;8.22;87.29
80424;BME280;69765;47.668;19.326;2023-11-21T10:21:25;98657.25;;;8.15;88.16
80424;BME280;69765;47.668;19.326;2023-11-21T10:24:27;98647.53;;;8.23;88.72
80424;BME280;69765;47.668;19.326;2023-11-21T10:27:39;98651.09;;;8.25;88.02
80424;BME280;69765;47.668;19.326;2023-11-21T10:30:41;98654.44;;;8.24;88.12
80424;BME280;69765;47.668;19.326;2023-11-21T10:33:44;98650.09;;;8.23;88.63
80424;BME280;69765;47.668;19.326;2023-11-21T10:36:46;98642.56;;;8.24;88.26
80424;BME280;69765;47.668;19.326;2023-11-21T10:39:49;98636.66;;;8.25;88.63
80424;BME280;69765;47.668;19.326;2023-11-21T10:42:52;98631.47;;;8.24;88.12
80424;BME280;69765;47.668;19.326;2023-11-21T10:45:57;98637.34;;;8.23;87.66
80424;BME280;69765;47.668;19.326;2023-11-21T10:49:02;98635.09;;;8.27;88.17
80424;BME280;69765;47.668;19.326;2023-11-21T10:52:04;98636.47;;;8.35;87.52
80424;BME280;69765;47.668;19.326;2023-11-21T10:55:17;98639.41;;;8.53;86.78
80424;BME280;69765;47.668;19.326;2023-11-21T10:58:20;98631.94;;;8.56;86.65
80424;BME280;69765;47.668;19.326;2023-11-21T11:01:25;98625.94;;;8.69;86.64
80424;BME280;69765;47.668;19.326;2023-11-21T11:04:31;98622.41;;;8.80;85.43
80424;BME280;69765;47.668;19.326;2023-11-21T11:07:35;98626.44;;;8.90;83.62
80424;BME280;69765;47.668;19.326;2023-11-21T11:10:39;98624.47;;;8.99;84.56
80424;BME280;69765;47.668;19.326;2023-11-21T11:13:44;98625.50;;;9.16;83.94
80424;BME280;69765;47.668;19.326;2023-11-21T11:16:50;98607.47;;;9.13;83.22
80424;BME280;69765;47.668;19.326;2023-11-21T11:19:52;98607.91;;;9.20;82.92
80424;BME280;69765;47.668;19.326;2023-11-21T11:23:19;98615.06;;;9.26;83.42
80424;BME280;69765;47.668;19.326;2023-11-21T11:33:23;98616.50;;;9.36;83.98
80424;BME280;69765;47.668;19.326;2023-11-21T11:36:34;98622.84;;;9.28;82.44
80424;BME280;69765;47.668;19.326;2023-11-21T11:39:40;98619.41;;;9.27;82.08
80424;BME280;69765;47.668;19.326;2023-11-21T11:42:58;98620.38;;;9.29;82.73
80424;BME280;69765;47.668;19.326;2023-11-21T11:46:04;98622.13;;;9.30;82.17
80424;BME280;69765;47.668;19.326;2023-11-21T11:49:06;98624.84;;;9.18;82.71
80424;BME280;69765;47.668;19.326;2023-11-21T11:55:42;98611.94;;;9.17;83.79
80424;BME280;69765;47.668;19.326;2023-11-21T11:58:44;98615.94;;;9.27;82.59
80424;BME280;69765;47.668;19.326;2023-11-21T12:01:49;98602.94;;;9.09;83.20
80424;BME280;69765;47.668;19.326;2023-11-21T12:04:55;98611.19;;;9.18;84.30
80424;BME280;69765;47.668;19.326;2023-11-21T12:08:01;98591.78;;;9.21;82.03
80424;BME280;69765;47.668;19.326;2023-11-21T12:11:04;98600.84;;;9.16;83.56
80424;BME280;69765;47.668;19.326;2023-11-21T12:14:07;98597.69;;;9.20;81.50
80424;BME280;69765;47.668;19.326;2023-11-21T12:17:10;98591.22;;;9.12;83.46
80424;BME280;69765;47.668;19.326;2023-11-21T12:20:13;98591.50;;;9.17;83.43
80424;BME280;69765;47.668;19.326;2023-11-21T12:23:22;98593.19;;;9.16;82.91
80424;BME280;69765;47.668;19.326;2023-11-21T12:26:25;98600.06;;;9.17;82.96
80424;BME280;69765;47.668;19.326;2023-11-21T12:29:27;98592.59;;;9.20;83.42
80424;BME280;69765;47.668;19.326;2023-11-21T12:32:31;98598.50;;;9.19;83.56
80424;BME280;69765;47.668;19.326;2023-11-21T12:35:35;98592.78;;;9.24;83.51
80424;BME280;69765;47.668;19.326;2023-11-21T12:38:38;98595.44;;;9.12;84.86
80424;BME280;69765;47.668;19.326;2023-11-21T12:41:40;98591.34;;;9.14;84.95
80424;BME280;69765;47.668;19.326;2023-11-21T12:44:45;98585.06;;;9.09;84.74
80424;BME280;69765;47.668;19.326;2023-11-21T12:47:51;98587.69;;;9.10;84.17
80424;BME280;69765;47.668;19.326;2023-11-21T12:50:54;98584.19;;;9.08;85.03
80424;BME280;69765;47.668;19.326;2023-11-21T12:53:58;98586.53;;;9.05;84.15
80424;BME280;69765;47.668;19.326;2023-11-21T12:57:01;98583.47;;;8.98;85.07
80424;BME280;69765;47.668;19.326;2023-11-21T13:00:06;98581.22;;;8.89;86.28
80424;BME280;69765;47.668;19.326;2023-11-21T13:03:16;98583.31;;;8.94;86.19
80424;BME280;69765;47.668;19.326;2023-11-21T13:06:20;98590.97;;;8.94;86.57
80424;BME280;69765;47.668;19.326;2023-11-21T13:09:27;98588.78;;;9.01;86.72
80424;BME280;69765;47.668;19.326;2023-11-21T13:12:30;98596.75;;;8.92;87.23
80424;BME280;69765;47.668;19.326;2023-11-21T13:15:39;98605.22;;;8.91;86.53
80424;BME280;69765;47.668;19.326;2023-11-21T13:18:43;98607.47;;;8.86;86.61
80424;BME280;69765;47.668;19.326;2023-11-21T13:21:46;98609.94;;;8.85;88.02
80424;BME280;69765;47.668;19.326;2023-11-21T13:24:48;98610.72;;;8.84;87.43
80424;BME280;69765;47.668;19.326;2023-11-21T13:27:50;98608.75;;;8.80;89.37
80424;BME280;69765;47.668;19.326;2023-11-21T13:30:53;98614.16;;;8.71;90.29
80424;BME280;69765;47.668;19.326;2023-11-21T13:33:55;98615.34;;;8.63;87.66
80424;BME280;69765;47.668;19.326;2023-11-21T13:36:59;98614.34;;;8.61;86.66
80424;BME280;69765;47.668;19.326;2023-11-21T13:40:03;98619.06;;;8.55;87.14
80424;BME280;69765;47.668;19.326;2023-11-21T13:43:13;98615.53;;;8.53;86.76
80424;BME280;69765;47.668;19.326;2023-11-21T13:46:16;98615.25;;;8.48;88.63
80424;BME280;69765;47.668;19.326;2023-11-21T13:49:24;98617.66;;;8.47;87.72
80424;BME280;69765;47.668;19.326;2023-11-21T13:52:28;98614.53;;;8.51;88.06
80424;BME280;69765;47.668;19.326;2023-11-21T13:55:35;98614.38;;;8.48;87.30
80424;BME280;69765;47.668;19.326;2023-11-21T13:58:38;98616.91;;;8.48;89.27
80424;BME280;69765;47.668;19.326;2023-11-21T14:02:09;98624.94;;;8.40;90.83
80424;BME280;69765;47.668;19.326;2023-11-21T14:05:20;98628.81;;;8.35;90.02
80424;BME280;69765;47.668;19.326;2023-11-21T14:08:31;98633.28;;;8.38;89.01
80424;BME280;69765;47.668;19.326;2023-11-21T14:11:34;98632.97;;;8.33;87.64
80424;BME280;69765;47.668;19.326;2023-11-21T14:14:47;98627.59;;;8.17;88.23
80424;BME280;69765;47.668;19.326;2023-11-21T14:17:51;98623.81;;;8.24;88.43
80424;BME280;69765;47.668;19.326;2023-11-21T14:20:53;98625.94;;;8.17;88.83
80424;BME280;69765;47.668;19.326;2023-11-21T14:23:55;98628.97;;;8.12;88.59
80424;BME280;69765;47.668;19.326;2023-11-21T14:26:57;98632.66;;;8.04;89.36
80424;BME280;69765;47.668;19.326;2023-11-21T14:30:00;98641.69;;;7.99;89.37
80424;BME280;69765;47.668;19.326;2023-11-21T14:33:02;98641.06;;;7.89;90.04
80424;BME280;69765;47.668;19.326;2023-11-21T14:36:06;98640.34;;;7.79;89.17
80424;BME280;69765;47.668;19.326;2023-11-21T14:39:11;98643.94;;;7.69;89.21
80424;BME280;69765;47.668;19.326;2023-11-21T14:42:26;98638.28;;;7.61;90.18
80424;BME280;69765;47.668;19.326;2023-11-21T14:45:32;98639.47;;;7.53;91.41
80424;BME280;69765;47.668;19.326;2023-11-21T14:48:35;98644.56;;;7.41;91.42
80424;BME280;69765;47.668;19.326;2023-11-21T14:51:52;98649.25;;;7.24;91.95
80424;BME280;69765;47.668;19.326;2023-11-21T14:54:57;98642.72;;;7.27;92.00
80424;BME280;69765;47.668;19.326;2023-11-21T14:58:35;98645.31;;;7.15;91.88
80424;BME280;69765;47.668;19.326;2023-11-21T15:01:39;98651.94;;;7.13;92.09
80424;BME280;69765;47.668;19.326;2023-11-21T15:04:55;98639.75;;;7.09;92.15
80424;BME280;69765;47.668;19.326;2023-11-21T15:08:04;98639.66;;;6.96;92.51
80424;BME280;69765;47.668;19.326;2023-11-21T15:11:25;98640.81;;;6.88;92.88
80424;BME280;69765;47.668;19.326;2023-11-21T15:14:32;98635.72;;;6.88;92.61
80424;BME280;69765;47.668;19.326;2023-11-21T15:17:38;98640.34;;;6.82;92.98
80424;BME280;69765;47.668;19.326;2023-11-21T15:20:42;98644.03;;;6.74;93.82
80424;BME280;69765;47.668;19.326;2023-11-21T15:23:45;98650.22;;;6.65;93.75
80424;BME280;69765;47.668;19.326;2023-11-21T15:26:48;98647.78;;;6.55;94.16
80424;BME280;69765;47.668;19.326;2023-11-21T15:29:50;98650.72;;;6.38;93.96
80424;BME280;69765;47.668;19.326;2023-11-21T15:32:52;98656.16;;;6.31;94.38
80424;BME280;69765;47.668;19.326;2023-11-21T15:35:56;98656.59;;;6.37;95.24
80424;BME280;69765;47.668;19.326;2023-11-21T15:38:59;98662.47;;;6.36;95.38
80424;BME280;69765;47.668;19.326;2023-11-21T15:42:01;98655.91;;;6.39;95.10
80424;BME280;69765;47.668;19.326;2023-11-21T15:45:06;98653.94;;;6.35;94.92
80424;BME280;69765;47.668;19.326;2023-11-21T15:48:10;98650.41;;;6.33;95.13
80424;BME280;69765;47.668;19.326;2023-11-21T15:51:12;98646.81;;;6.20;95.54
80424;BME280;69765;47.668;19.326;2023-11-21T15:54:15;98652.69;;;6.19;95.60
80424;BME280;69765;47.668;19.326;2023-11-21T15:57:17;98662.97;;;6.20;95.02
80424;BME280;69765;47.668;19.326;2023-11-21T16:00:20;98658.06;;;6.11;94.40
80424;BME280;69765;47.668;19.326;2023-11-21T16:03:25;98660.31;;;6.19;95.57
80424;BME280;69765;47.668;19.326;2023-11-21T16:06:27;98660.75;;;6.13;95.36
80424;BME280;69765;47.668;19.326;2023-11-21T16:09:31;98667.59;;;6.02;94.94
80424;BME280;69765;47.668;19.326;2023-11-21T16:12:33;98669.78;;;5.87;94.65
80424;BME280;69765;47.668;19.326;2023-11-21T16:15:36;98660.94;;;5.82;95.72
80424;BME280;69765;47.668;19.326;2023-11-21T16:18:38;98665.75;;;5.68;96.01
80424;BME280;69765;47.668;19.326;2023-11-21T16:21:40;98664.81;;;5.55;97.19
80424;BME280;69765;47.668;19.326;2023-11-21T16:24:43;98667.81;;;5.39;98.84